createdAt,value
2018-06-23T00:01:34.695Z,82.00
2018-06-23T00:04:03.628Z,80.50
2018-06-23T00:09:01.000Z,76.70
2018-06-23T00:11:29.968Z,78.50
2018-06-23T00:13:58.867Z,82.00
2018-06-23T00:18:56.226Z,84.20
2018-06-23T00:21:25.136Z,86.70
2018-06-23T00:26:27.845Z,86.40
2018-06-23T00:28:56.736Z,84.50
2018-06-23T00:31:26.124Z,86.50
2018-06-23T00:33:55.167Z,87.30
2018-06-23T00:36:24.117Z,86.40
2018-06-23T00:38:53.042Z,85.40
2018-06-23T00:41:21.972Z,86.70
2018-06-23T00:43:50.956Z,85.60
2018-06-23T00:46:19.893Z,85.50
2018-06-23T00:48:48.815Z,83.60
2018-06-23T00:51:17.726Z,81.50
2018-06-23T00:53:46.691Z,85.20
2018-06-23T00:56:15.594Z,88.20
2018-06-23T00:58:55.644Z,89.90
2018-06-23T01:01:24.879Z,90.10
2018-06-23T01:06:22.301Z,91.20
2018-06-23T01:08:51.199Z,91.40
2018-06-23T01:11:20.158Z,91.20
2018-06-23T01:13:49.054Z,90.70
2018-06-23T01:16:18.054Z,89.70
2018-06-23T01:18:46.932Z,89.30
2018-06-23T01:21:15.953Z,88.60
2018-06-23T01:23:44.884Z,88.60
2018-06-23T01:26:13.785Z,87.10
2018-06-23T01:31:11.216Z,88.20
2018-06-23T01:33:40.099Z,90.20
2018-06-23T01:36:09.024Z,91.50
2018-06-23T01:38:37.960Z,91.70
2018-06-23T01:41:06.856Z,92.30
2018-06-23T01:43:35.755Z,92.00
2018-06-23T01:46:04.724Z,91.70
2018-06-23T01:48:33.660Z,91.20
2018-06-23T01:51:02.557Z,91.50
2018-06-23T01:53:31.465Z,92.20
2018-06-23T02:00:57.473Z,93.30
2018-06-23T02:03:26.374Z,94.00
2018-06-23T02:05:55.247Z,93.90
2018-06-23T02:08:24.090Z,93.40
2018-06-23T02:13:21.528Z,93.70
2018-06-23T02:15:55.779Z,94.30
2018-06-23T02:21:03.629Z,95.10
2018-06-23T02:23:37.729Z,96.00
2018-06-23T02:26:11.911Z,96.80
2018-06-23T02:31:19.663Z,97.20
2018-06-23T02:33:53.662Z,97.60
2018-06-23T02:36:22.528Z,97.80
2018-06-23T02:38:51.449Z,97.30
2018-06-23T02:41:20.469Z,98.50
2018-06-23T02:43:49.384Z,99.20
2018-06-23T02:46:18.283Z,99.10
2018-06-23T02:48:47.164Z,98.00
2018-06-23T02:51:16.164Z,97.70
2018-06-23T02:53:45.065Z,97.70
2018-06-23T02:58:42.446Z,97.20
2018-06-23T03:06:08.426Z,96.80
2018-06-23T03:08:37.353Z,97.00
2018-06-23T03:11:06.272Z,97.60
2018-06-23T03:13:35.152Z,97.90
2018-06-23T03:16:04.070Z,97.60
2018-06-23T03:18:32.967Z,98.30
2018-06-23T03:21:01.861Z,99.90
2018-06-23T03:23:30.769Z,99.90
2018-06-23T03:25:59.639Z,99.90
2018-06-23T03:28:28.563Z,99.90
2018-06-23T03:30:57.445Z,99.90
2018-06-23T03:33:26.304Z,99.70
2018-06-23T03:35:55.222Z,99.30
2018-06-23T03:38:24.119Z,99.10
2018-06-23T03:40:53.004Z,98.10
2018-06-23T03:43:21.921Z,97.80
2018-06-23T03:45:50.862Z,97.70
2018-06-23T03:48:19.689Z,95.40
2018-06-23T03:50:48.657Z,95.10
2018-06-23T03:53:17.546Z,95.10
2018-06-23T03:55:46.467Z,95.40
2018-06-23T03:58:15.368Z,95.50
2018-06-23T04:00:49.601Z,96.80
2018-06-23T04:03:18.521Z,97.40
2018-06-23T04:05:48.390Z,96.70
2018-06-23T04:08:17.726Z,96.70
2018-06-23T04:10:46.811Z,95.90
2018-06-23T04:13:15.997Z,95.60
2018-06-23T04:20:41.912Z,97.70
2018-06-23T04:23:10.784Z,97.60
2018-06-23T04:25:39.793Z,96.70
2018-06-23T04:28:08.706Z,96.60
2018-06-23T04:30:37.595Z,96.60
2018-06-23T04:33:06.537Z,97.50
2018-06-23T04:35:35.439Z,96.70
2018-06-23T04:38:04.372Z,97.60
2018-06-23T04:40:33.297Z,97.90
2018-06-23T04:43:02.179Z,97.40
2018-06-23T04:45:31.130Z,98.00
2018-06-23T04:48:00.033Z,97.80
2018-06-23T04:52:57.776Z,98.70
2018-06-23T04:55:26.775Z,99.50
2018-06-23T04:57:55.697Z,99.90
2018-06-23T05:00:27.092Z,99.90
2018-06-23T05:02:57.007Z,99.90
2018-06-23T05:05:26.330Z,99.90
2018-06-23T05:07:55.168Z,99.90
2018-06-23T05:10:24.060Z,99.90
2018-06-23T05:12:52.923Z,99.90
2018-06-23T05:15:21.805Z,99.90
2018-06-23T05:17:50.728Z,99.90
2018-06-23T05:20:19.667Z,99.90
2018-06-23T05:22:48.648Z,99.90
2018-06-23T05:25:17.613Z,99.90
2018-06-23T05:27:46.473Z,99.90
2018-06-23T05:30:15.435Z,99.90
2018-06-23T05:32:44.307Z,99.90
2018-06-23T05:35:13.210Z,99.90
2018-06-23T05:37:42.207Z,99.90
2018-06-23T05:40:11.126Z,99.90
2018-06-23T05:42:39.957Z,99.90
2018-06-23T05:45:08.875Z,99.90
2018-06-23T05:47:37.745Z,99.90
2018-06-23T05:50:06.640Z,99.90
2018-06-23T05:52:35.734Z,99.90
2018-06-23T05:55:05.016Z,99.90
2018-06-23T05:57:34.320Z,99.90
2018-06-23T06:00:03.351Z,99.90
2018-06-23T06:02:32.217Z,99.90
2018-06-23T06:05:01.209Z,99.90
2018-06-23T06:07:30.202Z,99.90
2018-06-23T06:09:59.101Z,99.90
2018-06-23T06:12:28.038Z,99.90
2018-06-23T06:17:27.718Z,99.90
2018-06-23T06:19:57.620Z,99.60
2018-06-23T06:22:30.707Z,98.30
2018-06-23T06:24:59.682Z,98.20
2018-06-23T06:27:28.762Z,98.50
2018-06-23T06:29:58.364Z,97.40
2018-06-23T06:32:27.767Z,93.60
2018-06-23T06:37:25.486Z,91.20
2018-06-23T06:39:54.645Z,88.90
2018-06-23T06:42:23.834Z,83.00
2018-06-23T06:44:52.743Z,81.70
2018-06-23T06:47:21.659Z,81.90
2018-06-23T06:49:50.565Z,80.80
2018-06-23T06:52:19.443Z,81.70
2018-06-23T06:54:48.342Z,83.50
2018-06-23T06:59:45.649Z,81.50
2018-06-23T07:04:42.991Z,77.90
2018-06-23T07:07:11.982Z,76.20
2018-06-23T07:09:40.813Z,76.40
2018-06-23T07:12:09.671Z,74.80
2018-06-23T07:14:38.587Z,69.00
2018-06-23T07:19:36.772Z,63.50
2018-06-23T07:24:34.188Z,61.00
2018-06-23T07:27:03.099Z,62.20
2018-06-23T07:29:32.039Z,65.40
2018-06-23T07:32:01.416Z,66.70
2018-06-23T07:34:30.611Z,61.30
2018-06-23T07:36:59.843Z,61.50
2018-06-23T07:39:29.126Z,59.50
2018-06-23T07:41:58.252Z,59.70
2018-06-23T07:44:27.426Z,60.50
2018-06-23T07:46:56.652Z,63.80
2018-06-23T07:49:25.810Z,58.00
2018-06-23T07:51:55.011Z,59.60
2018-06-23T07:54:24.410Z,55.50
2018-06-23T07:56:53.615Z,56.60
2018-06-23T07:59:22.805Z,53.40
2018-06-23T08:01:52.005Z,53.00
2018-06-23T08:04:21.130Z,51.50
2018-06-23T08:06:50.382Z,50.90
2018-06-23T08:14:16.696Z,50.90
2018-06-23T08:16:45.588Z,50.20
2018-06-23T08:19:14.488Z,52.40
2018-06-23T08:21:43.604Z,48.60
2018-06-23T08:24:12.803Z,47.30
2018-06-23T08:26:42.103Z,48.40
2018-06-23T08:29:11.159Z,48.60
2018-06-23T08:31:40.558Z,47.30
2018-06-23T08:34:09.824Z,48.40
2018-06-23T08:36:39.344Z,47.70
2018-06-23T08:39:09.005Z,46.30
2018-06-23T08:41:38.320Z,46.70
2018-06-23T08:44:07.526Z,46.90
2018-06-23T08:46:36.663Z,46.10
2018-06-23T08:49:05.675Z,44.40
2018-06-23T08:51:34.793Z,44.10
2018-06-23T08:54:04.005Z,44.60
2018-06-23T08:59:04.307Z,43.70
2018-06-23T09:01:33.205Z,44.20
2018-06-23T09:04:02.650Z,44.60
2018-06-23T09:06:31.603Z,45.30
2018-06-23T09:09:00.952Z,40.80
2018-06-23T09:11:30.076Z,43.50
2018-06-23T09:13:59.504Z,43.10
2018-06-23T09:16:28.392Z,43.70
2018-06-23T09:18:57.655Z,42.50
2018-06-23T09:21:27.056Z,42.50
2018-06-23T09:23:56.362Z,43.10
2018-06-23T09:26:25.509Z,40.80
2018-06-23T09:31:23.340Z,40.20
2018-06-23T09:33:52.289Z,39.60
2018-06-23T09:36:21.657Z,39.50
2018-06-23T09:38:50.718Z,38.60
2018-06-23T09:41:20.117Z,39.10
2018-06-23T09:43:49.483Z,40.70
2018-06-23T09:46:20.232Z,38.70
2018-06-23T09:48:49.212Z,38.80
2018-06-23T09:53:47.684Z,39.00
2018-06-23T09:56:17.217Z,38.50
2018-06-23T09:58:46.556Z,37.70
2018-06-23T10:01:15.922Z,37.90
2018-06-23T10:03:45.510Z,40.30
2018-06-23T10:06:14.945Z,38.60
2018-06-23T10:08:44.117Z,39.90
2018-06-23T10:11:13.469Z,39.20
2018-06-23T10:13:42.837Z,38.10
2018-06-23T10:16:12.138Z,39.10
2018-06-23T10:18:41.621Z,39.30
2018-06-23T10:26:08.462Z,38.20
2018-06-23T10:28:37.578Z,34.10
2018-06-23T10:31:07.815Z,36.80
2018-06-23T10:36:05.965Z,35.40
2018-06-23T10:38:35.286Z,34.50
2018-06-23T10:41:04.420Z,36.80
2018-06-23T10:43:33.640Z,39.60
2018-06-23T10:46:02.817Z,39.80
2018-06-23T10:48:32.036Z,37.40
2018-06-23T10:51:01.294Z,37.70
2018-06-23T10:53:30.594Z,38.00
2018-06-23T10:58:28.788Z,37.30
2018-06-23T11:00:58.083Z,37.60
2018-06-23T11:08:25.257Z,39.20
2018-06-23T11:10:54.356Z,36.50
2018-06-23T11:13:23.492Z,36.30
2018-06-23T11:15:52.669Z,37.20
2018-06-23T11:18:21.838Z,36.30
2018-06-23T11:20:51.058Z,38.00
2018-06-23T11:23:20.258Z,37.10
2018-06-23T11:25:49.376Z,37.00
2018-06-23T11:28:18.643Z,37.30
2018-06-23T11:30:47.798Z,37.80
2018-06-23T11:33:17.036Z,36.90
2018-06-23T11:35:46.268Z,36.30
2018-06-23T11:38:15.566Z,36.60
2018-06-23T11:40:44.859Z,39.20
2018-06-23T11:43:14.233Z,36.00
2018-06-23T11:45:43.639Z,36.20
2018-06-23T11:48:12.835Z,34.60
2018-06-23T11:50:42.152Z,36.60
2018-06-23T11:53:11.525Z,36.10
2018-06-23T11:55:40.732Z,36.50
2018-06-23T11:58:09.733Z,36.20
2018-06-23T12:00:39.057Z,36.70
2018-06-23T12:03:08.068Z,37.10
2018-06-23T12:05:37.071Z,36.60
2018-06-23T12:08:06.437Z,35.80
2018-06-23T12:10:35.713Z,35.80
2018-06-23T12:13:04.737Z,35.90
2018-06-23T12:15:34.248Z,36.30
2018-06-23T12:18:03.440Z,37.00
2018-06-23T12:20:32.744Z,35.60
2018-06-23T12:23:01.720Z,37.60
2018-06-23T12:25:31.159Z,38.40
2018-06-23T12:28:00.421Z,39.30
2018-06-23T12:30:29.639Z,36.90
2018-06-23T12:32:58.500Z,36.90
2018-06-23T12:35:27.596Z,37.00
2018-06-23T12:37:56.464Z,39.50
2018-06-23T12:42:54.529Z,36.90
2018-06-23T12:45:23.447Z,35.90
2018-06-23T12:47:52.881Z,36.80
2018-06-23T12:50:22.283Z,36.00
2018-06-23T12:52:51.563Z,35.80
2018-06-23T12:55:20.967Z,34.80
2018-06-23T12:57:49.822Z,36.00
2018-06-23T13:02:47.295Z,36.40
2018-06-23T13:07:44.998Z,34.70
2018-06-23T13:10:14.013Z,35.20
2018-06-23T13:12:43.459Z,34.80
2018-06-23T13:15:12.431Z,34.30
2018-06-23T13:17:41.676Z,34.10
2018-06-23T13:22:39.571Z,36.70
2018-06-23T13:25:08.473Z,34.30
2018-06-23T13:27:37.404Z,35.00
2018-06-23T13:30:06.874Z,32.90
2018-06-23T13:32:36.146Z,34.20
2018-06-23T13:35:05.596Z,35.00
2018-06-23T13:37:34.756Z,34.40
2018-06-23T13:40:03.768Z,33.10
2018-06-23T13:42:33.068Z,33.40
2018-06-23T13:45:01.955Z,34.60
2018-06-23T13:47:31.436Z,35.50
2018-06-23T13:50:00.456Z,34.60
2018-06-23T13:52:29.656Z,35.10
2018-06-23T13:54:59.020Z,33.90
2018-06-23T13:57:27.915Z,35.10
2018-06-23T13:59:57.215Z,34.70
2018-06-23T14:02:26.507Z,35.40
2018-06-23T14:04:55.783Z,34.40
2018-06-23T14:09:53.681Z,34.50
2018-06-23T14:17:20.053Z,34.70
2018-06-23T14:19:49.332Z,33.40
2018-06-23T14:24:47.303Z,35.70
2018-06-23T14:27:16.640Z,35.50
2018-06-23T14:29:46.151Z,36.80
2018-06-23T14:32:15.249Z,35.30
2018-06-23T14:34:44.362Z,35.80
2018-06-23T14:37:13.381Z,36.00
2018-06-23T14:39:42.459Z,34.90
2018-06-23T14:42:11.784Z,36.10
2018-06-23T14:44:41.156Z,34.90
2018-06-23T14:47:10.038Z,34.50
2018-06-23T14:49:39.386Z,35.60
2018-06-23T14:52:08.643Z,36.50
2018-06-23T14:54:37.798Z,37.20
2018-06-23T14:57:07.132Z,35.10
2018-06-23T14:59:36.048Z,35.30
2018-06-23T15:02:05.325Z,36.30
2018-06-23T15:04:34.470Z,37.20
2018-06-23T15:09:42.884Z,37.10
2018-06-23T15:12:23.114Z,36.50
2018-06-23T15:14:52.381Z,37.40
2018-06-23T15:17:21.649Z,38.50
2018-06-23T15:19:50.989Z,38.10
2018-06-23T15:22:20.259Z,39.10
2018-06-23T15:24:49.329Z,39.10
2018-06-23T15:27:18.541Z,38.00
2018-06-23T15:32:16.450Z,38.50
2018-06-23T15:34:45.844Z,37.70
2018-06-23T15:37:15.164Z,38.10
2018-06-23T15:39:44.172Z,39.10
2018-06-23T15:42:13.436Z,39.50
2018-06-23T15:44:42.759Z,39.50
2018-06-23T15:47:11.995Z,39.60
2018-06-23T15:49:41.070Z,39.50
2018-06-23T15:52:10.431Z,39.50
2018-06-23T15:54:39.520Z,38.60
2018-06-23T15:57:08.839Z,36.70
2018-06-23T15:59:38.140Z,37.70
2018-06-23T16:02:07.400Z,37.50
2018-06-23T16:04:36.497Z,37.40
2018-06-23T16:09:34.511Z,38.20
2018-06-23T16:12:03.381Z,39.40
2018-06-23T16:17:01.206Z,41.50
2018-06-23T16:19:30.505Z,42.60
2018-06-23T16:21:59.684Z,42.30
2018-06-23T16:24:28.955Z,42.80
2018-06-23T16:29:26.554Z,42.10
2018-06-23T16:31:55.867Z,42.30
2018-06-23T16:34:25.088Z,41.90
2018-06-23T16:36:54.457Z,42.30
2018-06-23T16:39:23.840Z,42.30
2018-06-23T16:41:53.206Z,42.10
2018-06-23T16:44:22.401Z,43.00
2018-06-23T16:46:51.566Z,43.00
2018-06-23T16:49:20.728Z,42.80
2018-06-23T16:54:18.824Z,42.50
2018-06-23T16:56:48.087Z,42.90
2018-06-23T16:59:17.469Z,43.10
2018-06-23T17:01:46.700Z,43.30
2018-06-23T17:04:15.830Z,42.90
2018-06-23T17:06:45.009Z,43.10
2018-06-23T17:09:14.159Z,43.40
2018-06-23T17:11:43.451Z,42.80
2018-06-23T17:14:12.623Z,42.60
2018-06-23T17:16:41.855Z,42.90
2018-06-23T17:19:11.122Z,43.50
2018-06-23T17:21:40.410Z,43.80
2018-06-23T17:24:09.431Z,44.10
2018-06-23T17:26:38.605Z,44.30
2018-06-23T17:29:07.754Z,44.10
2018-06-23T17:31:37.205Z,44.20
2018-06-23T17:34:06.369Z,44.60
2018-06-23T17:39:06.349Z,44.50
2018-06-23T17:41:35.687Z,44.90
2018-06-23T17:44:04.925Z,44.80
2018-06-23T17:46:34.629Z,44.60
2018-06-23T17:49:03.828Z,44.70
2018-06-23T17:51:33.140Z,45.30
2018-06-23T17:54:02.325Z,45.60
2018-06-23T17:56:31.652Z,44.80
2018-06-23T17:59:00.917Z,44.30
2018-06-23T18:01:30.125Z,44.60
2018-06-23T18:03:59.421Z,44.30
2018-06-23T18:06:28.706Z,44.50
2018-06-23T18:08:58.024Z,44.50
2018-06-23T18:11:28.387Z,44.80
2018-06-23T18:13:57.597Z,44.70
2018-06-23T18:16:26.864Z,45.10
2018-06-23T18:18:56.066Z,45.60
2018-06-23T18:21:25.262Z,45.30
2018-06-23T18:23:54.415Z,45.00
2018-06-23T18:28:52.203Z,44.50
2018-06-23T18:31:21.423Z,44.40
2018-06-23T18:33:50.668Z,44.70
2018-06-23T18:36:19.808Z,45.60
2018-06-23T18:38:49.066Z,45.90
2018-06-23T18:41:18.226Z,46.20
2018-06-23T18:43:47.184Z,46.80
2018-06-23T18:46:16.075Z,47.10
2018-06-23T18:48:45.556Z,47.60
2018-06-23T18:51:14.771Z,47.80
2018-06-23T18:53:43.959Z,48.20
2018-06-23T18:58:41.965Z,47.60
2018-06-23T19:01:11.256Z,47.60
2018-06-23T19:03:40.556Z,47.80
2018-06-23T19:06:09.865Z,47.80
2018-06-23T19:08:39.097Z,47.80
2018-06-23T19:11:08.345Z,47.40
2018-06-23T19:16:06.246Z,46.90
2018-06-23T19:18:35.620Z,47.00
2018-06-23T19:23:33.636Z,47.20
2018-06-23T19:26:02.573Z,47.90
2018-06-23T19:28:31.719Z,48.80
2018-06-23T19:31:00.944Z,49.10
2018-06-23T19:33:30.216Z,49.40
2018-06-23T19:35:59.239Z,49.10
2018-06-23T19:38:28.291Z,48.90
2018-06-23T19:40:57.608Z,49.50
2018-06-23T19:43:26.862Z,49.90
2018-06-23T19:45:56.135Z,50.30
2018-06-23T19:48:25.373Z,49.90
2018-06-23T19:53:23.261Z,49.60
2018-06-23T19:55:52.583Z,50.50
2018-06-23T19:58:21.877Z,51.60
2018-06-23T20:00:51.271Z,51.50
2018-06-23T20:03:20.559Z,51.50
2018-06-23T20:08:18.476Z,51.40
2018-06-23T20:13:16.204Z,50.80
2018-06-23T20:15:45.440Z,49.80
2018-06-23T20:18:14.736Z,49.60
2018-06-23T20:20:44.034Z,51.10
2018-06-23T20:23:13.334Z,50.20
2018-06-23T20:25:42.647Z,50.60
2018-06-23T20:28:11.856Z,51.90
2018-06-23T20:30:40.819Z,53.00
2018-06-23T20:33:09.989Z,53.80
2018-06-23T20:35:39.267Z,53.60
2018-06-23T20:38:08.495Z,53.20
2018-06-23T20:43:07.066Z,53.40
2018-06-23T20:45:36.304Z,53.70
2018-06-23T20:48:05.563Z,53.60
2018-06-23T20:50:34.762Z,53.40
2018-06-23T20:53:04.095Z,53.30
2018-06-23T20:55:33.411Z,54.40
2018-06-23T20:58:02.505Z,54.40
2018-06-23T21:00:31.943Z,54.80
2018-06-23T21:03:01.229Z,55.10
2018-06-23T21:05:30.429Z,54.90
2018-06-23T21:07:59.850Z,55.50
2018-06-23T21:10:39.675Z,55.20
2018-06-23T21:13:09.089Z,55.10
2018-06-23T21:15:38.367Z,54.40
2018-06-23T21:18:07.923Z,54.50
2018-06-23T21:20:37.268Z,54.80
2018-06-23T21:23:06.435Z,55.10
2018-06-23T21:28:04.610Z,55.10
2018-06-23T21:30:33.878Z,55.10
2018-06-23T21:33:03.125Z,54.50
2018-06-23T21:35:32.397Z,54.80
2018-06-23T21:38:01.757Z,54.40
2018-06-23T21:40:31.164Z,55.20
2018-06-23T21:43:00.426Z,55.30
2018-06-23T21:47:58.508Z,56.20
2018-06-23T21:50:27.830Z,56.30
2018-06-23T21:52:57.100Z,55.90
2018-06-23T22:00:40.195Z,56.00
2018-06-23T22:03:10.784Z,55.90
2018-06-23T22:08:09.642Z,57.60
2018-06-23T22:10:39.013Z,57.00
2018-06-23T22:13:08.325Z,57.60
2018-06-23T22:15:37.617Z,57.60
2018-06-23T22:18:06.943Z,57.40
2018-06-23T22:20:36.254Z,57.60
2018-06-23T22:23:05.601Z,57.90
2018-06-23T22:25:34.844Z,58.00
2018-06-23T22:28:04.142Z,57.70
2018-06-23T22:30:33.524Z,58.10
2018-06-23T22:33:02.897Z,58.10
2018-06-23T22:35:32.239Z,57.90
2018-06-23T22:38:01.424Z,58.30
2018-06-23T22:40:30.637Z,58.00
2018-06-23T22:42:59.812Z,57.90
2018-06-23T22:45:29.015Z,58.10
2018-06-23T22:47:58.304Z,57.90
2018-06-23T22:50:27.497Z,57.80
2018-06-23T22:52:56.717Z,58.00
2018-06-23T22:55:25.932Z,56.80
2018-06-23T22:57:55.296Z,56.80
2018-06-23T23:00:24.602Z,57.00
2018-06-23T23:02:53.778Z,57.10
2018-06-23T23:05:23.094Z,57.80
2018-06-23T23:07:52.279Z,57.80
2018-06-23T23:12:50.193Z,56.60
2018-06-23T23:15:19.556Z,58.60
2018-06-23T23:20:17.440Z,57.30
2018-06-23T23:25:15.319Z,56.60
2018-06-23T23:30:13.463Z,56.80
2018-06-23T23:32:42.691Z,57.10
2018-06-23T23:35:11.851Z,56.80
2018-06-23T23:37:41.127Z,56.30
2018-06-23T23:40:10.414Z,56.70
2018-06-23T23:42:39.727Z,56.60
2018-06-23T23:45:09.033Z,57.00
2018-06-23T23:47:38.193Z,56.80
2018-06-23T23:50:07.536Z,56.80
2018-06-23T23:52:36.959Z,56.60
2018-06-23T23:55:06.424Z,57.10
2018-06-23T23:57:35.605Z,57.60
